createdAt,value
2023-03-21T00:00:05.091Z,95120.00
2023-03-21T00:04:05.356Z,95120.00
2023-03-21T00:08:05.491Z,95118.00
2023-03-21T00:12:05.693Z,95120.00
2023-03-21T00:16:11.025Z,95116.00
2023-03-21T00:20:06.857Z,95111.00
2023-03-21T00:24:05.868Z,95107.00
2023-03-21T00:28:08.659Z,95103.00
2023-03-21T00:32:05.860Z,95097.00
2023-03-21T00:36:06.403Z,95093.00
2023-03-21T00:40:08.594Z,95083.00
2023-03-21T00:44:05.798Z,95081.00
2023-03-21T00:48:05.788Z,95079.00
2023-03-21T00:52:15.815Z,95077.00
2023-03-21T00:56:06.649Z,95077.00
2023-03-21T01:00:05.611Z,95081.00
2023-03-21T01:04:05.729Z,95079.00
2023-03-21T01:08:20.698Z,95077.00
2023-03-21T01:12:06.812Z,95071.00
2023-03-21T01:16:05.876Z,95067.00
2023-03-21T01:20:05.930Z,95062.00
2023-03-21T01:24:06.059Z,95060.00
2023-03-21T01:28:05.871Z,95062.00
2023-03-21T01:32:05.830Z,95056.00
2023-03-21T01:36:12.778Z,95054.00
2023-03-21T01:40:06.742Z,95054.00
2023-03-21T01:44:05.681Z,95048.00
2023-03-21T01:48:05.882Z,95044.00
2023-03-21T01:52:12.163Z,95042.00
2023-03-21T01:56:06.786Z,95034.00
2023-03-21T02:00:05.756Z,95032.00
2023-03-21T02:04:05.902Z,95030.00
2023-03-21T02:08:06.082Z,95034.00
2023-03-21T02:12:06.064Z,95036.00
2023-03-21T02:16:05.984Z,95030.00
2023-03-21T02:20:06.002Z,95022.00
2023-03-21T02:24:05.910Z,95020.00
2023-03-21T02:28:05.892Z,95022.00
2023-03-21T02:32:16.468Z,95024.00
2023-03-21T02:36:13.940Z,95024.00
2023-03-21T02:40:06.806Z,95020.00
2023-03-21T02:44:05.749Z,95028.00
2023-03-21T02:48:06.874Z,95026.00
2023-03-21T02:52:15.684Z,95024.00
2023-03-21T02:56:06.674Z,95022.00
2023-03-21T03:00:15.783Z,95024.00
2023-03-21T03:04:06.636Z,95020.00
2023-03-21T03:08:05.526Z,95013.00
2023-03-21T03:12:05.717Z,95017.00
2023-03-21T03:16:05.653Z,95017.00
2023-03-21T03:20:15.654Z,95015.00
2023-03-21T03:24:06.560Z,95013.00
2023-03-21T03:28:05.569Z,95013.00
2023-03-21T03:32:05.727Z,95013.00
2023-03-21T03:36:07.134Z,95007.00
2023-03-21T03:40:05.599Z,95005.00
2023-03-21T03:44:05.701Z,95005.00
2023-03-21T03:48:05.729Z,95005.00
2023-03-21T03:52:05.675Z,95001.00
2023-03-21T03:56:05.604Z,95005.00
2023-03-21T04:00:05.645Z,95003.00
2023-03-21T04:04:12.929Z,95003.00
2023-03-21T04:08:06.483Z,95003.00
2023-03-21T04:12:05.461Z,95003.00
2023-03-21T04:16:05.673Z,95003.00
2023-03-21T04:20:12.031Z,95005.00
2023-03-21T04:24:06.612Z,95005.00
2023-03-21T04:28:05.587Z,95011.00
2023-03-21T04:32:05.791Z,95011.00
2023-03-21T04:36:05.702Z,95015.00
2023-03-21T04:40:05.648Z,95020.00
2023-03-21T04:44:05.565Z,95022.00
2023-03-21T04:48:05.559Z,95022.00
2023-03-21T04:52:05.531Z,95028.00
2023-03-21T04:56:05.502Z,95028.00
2023-03-21T05:00:05.476Z,95026.00
2023-03-21T05:04:05.473Z,95022.00
2023-03-21T05:08:05.345Z,95020.00
2023-03-21T05:12:05.499Z,95017.00
2023-03-21T05:16:05.724Z,95022.00
2023-03-21T05:20:05.918Z,95017.00
2023-03-21T05:24:06.150Z,95022.00
2023-03-21T05:28:06.377Z,95018.00
2023-03-21T05:32:06.313Z,95020.00
2023-03-21T05:36:06.342Z,95018.00
2023-03-21T05:40:06.267Z,95015.00
2023-03-21T05:44:06.219Z,95020.00
2023-03-21T05:48:06.206Z,95017.00
2023-03-21T05:52:06.136Z,95015.00
2023-03-21T05:56:06.105Z,95013.00
2023-03-21T06:00:06.107Z,95015.00
2023-03-21T06:04:06.153Z,95017.00
2023-03-21T06:08:05.991Z,95013.00
2023-03-21T06:12:06.147Z,95011.00
2023-03-21T06:16:06.083Z,95013.00
2023-03-21T06:20:06.019Z,95015.00
2023-03-21T06:24:06.025Z,95018.00
2023-03-21T06:28:05.966Z,95017.00
2023-03-21T06:32:06.188Z,95022.00
2023-03-21T06:36:05.972Z,95026.00
2023-03-21T06:40:05.847Z,95024.00
2023-03-21T06:44:05.839Z,95026.00
2023-03-21T06:48:08.704Z,95024.00
2023-03-21T06:52:05.721Z,95028.00
2023-03-21T06:56:05.740Z,95026.00
2023-03-21T07:00:05.686Z,95028.00
2023-03-21T07:04:05.626Z,95028.00
2023-03-21T07:08:05.623Z,95028.00
2023-03-21T07:12:05.590Z,95024.00
2023-03-21T07:16:05.544Z,95028.00
2023-03-21T07:20:05.494Z,95026.00
2023-03-21T07:24:05.469Z,95032.00
2023-03-21T07:28:05.428Z,95028.00
2023-03-21T07:32:05.384Z,95020.00
2023-03-21T07:36:05.618Z,95020.00
2023-03-21T07:40:05.616Z,95024.00
2023-03-21T07:48:05.949Z,95026.00
2023-03-21T07:52:06.092Z,95028.00
2023-03-21T07:56:06.633Z,95028.00
2023-03-21T08:00:06.281Z,95028.00
2023-03-21T08:04:06.224Z,95026.00
2023-03-21T08:08:06.203Z,95024.00
2023-03-21T08:12:06.139Z,95018.00
2023-03-21T08:16:06.116Z,95020.00
2023-03-21T08:20:06.071Z,95017.00
2023-03-21T08:24:06.051Z,95013.00
2023-03-21T08:28:05.996Z,95011.00
2023-03-21T08:32:06.710Z,95005.00
2023-03-21T08:36:05.986Z,95005.00
2023-03-21T08:40:05.975Z,95011.00
2023-03-21T08:44:05.895Z,95011.00
2023-03-21T08:48:06.682Z,95009.00
2023-03-21T08:52:05.790Z,95009.00
2023-03-21T08:56:05.755Z,94999.00
2023-03-21T09:00:05.796Z,94991.00
2023-03-21T09:04:05.664Z,94989.00
2023-03-21T09:08:05.617Z,94989.00
2023-03-21T09:12:05.584Z,94993.00
2023-03-21T09:16:05.644Z,94983.00
2023-03-21T09:20:05.494Z,94977.00
2023-03-21T09:24:05.493Z,94975.00
2023-03-21T09:28:05.537Z,94968.00
2023-03-21T09:32:05.450Z,94968.00
2023-03-21T09:36:05.499Z,94964.00
2023-03-21T09:40:05.341Z,94958.00
2023-03-21T09:44:05.675Z,94956.00
2023-03-21T09:48:05.316Z,94954.00
2023-03-21T09:52:05.225Z,94950.00
2023-03-21T09:56:05.193Z,94942.00
2023-03-21T10:00:05.368Z,94940.00
2023-03-21T10:04:05.356Z,94938.00
2023-03-21T10:08:05.342Z,94936.00
2023-03-21T10:12:06.030Z,94934.00
2023-03-21T10:16:05.277Z,94930.00
2023-03-21T10:20:05.420Z,94930.00
2023-03-21T10:24:05.205Z,94923.00
2023-03-21T10:28:05.258Z,94921.00
2023-03-21T10:32:05.137Z,94917.00
2023-03-21T10:36:05.276Z,94913.00
2023-03-21T10:40:05.013Z,94909.00
2023-03-21T10:44:05.584Z,94905.00
2023-03-21T10:48:05.406Z,94901.00
2023-03-21T10:52:05.981Z,94893.00
2023-03-21T10:56:05.533Z,94885.00
2023-03-21T11:00:05.680Z,94881.00
2023-03-21T11:04:05.810Z,94883.00
2023-03-21T11:08:06.260Z,94876.00
2023-03-21T11:12:05.974Z,94876.00
2023-03-21T11:16:06.010Z,94868.00
2023-03-21T11:20:06.142Z,94862.00
2023-03-21T11:24:07.562Z,94860.00
2023-03-21T11:28:06.271Z,94850.00
2023-03-21T11:32:06.163Z,94848.00
2023-03-21T11:36:06.354Z,94842.00
2023-03-21T11:40:06.531Z,94832.00
2023-03-21T11:44:06.688Z,94828.00
2023-03-21T11:48:06.865Z,94823.00
2023-03-21T11:52:06.847Z,94821.00
2023-03-21T11:56:06.837Z,94817.00
2023-03-21T12:00:06.885Z,94807.00
2023-03-21T12:04:06.865Z,94801.00
2023-03-21T12:08:06.889Z,94797.00
2023-03-21T12:12:07.307Z,94789.00
2023-03-21T12:16:07.153Z,94785.00
2023-03-21T12:20:07.166Z,94776.00
2023-03-21T12:24:07.385Z,94770.00
2023-03-21T12:28:07.403Z,94762.00
2023-03-21T12:32:07.467Z,94758.00
2023-03-21T12:36:07.518Z,94752.00
2023-03-21T12:40:07.814Z,94742.00
2023-03-21T12:44:07.472Z,94738.00
2023-03-21T12:48:07.670Z,94734.00
2023-03-21T12:52:07.625Z,94736.00
2023-03-21T12:56:07.736Z,94732.00
2023-03-21T13:00:07.861Z,94732.00
2023-03-21T13:04:08.065Z,94727.00
2023-03-21T13:08:07.984Z,94729.00
2023-03-21T13:12:08.030Z,94727.00
2023-03-21T13:16:08.197Z,94725.00
2023-03-21T13:20:08.235Z,94721.00
2023-03-21T13:24:08.185Z,94717.00
2023-03-21T13:28:08.215Z,94709.00
2023-03-21T13:32:08.372Z,94705.00
2023-03-21T13:36:08.574Z,94699.00
2023-03-21T13:40:08.518Z,94695.00
2023-03-21T13:44:08.652Z,94689.00
2023-03-21T13:48:08.752Z,94683.00
2023-03-21T13:52:08.942Z,94682.00
2023-03-21T13:56:08.964Z,94676.00
2023-03-21T14:00:09.149Z,94668.00
2023-03-21T14:04:09.230Z,94664.00
2023-03-21T14:08:17.229Z,94666.00
2023-03-21T14:12:10.304Z,94664.00
2023-03-21T14:16:09.261Z,94666.00
2023-03-21T14:20:11.648Z,94660.00
2023-03-21T14:24:09.544Z,94658.00
2023-03-21T14:28:09.577Z,94658.00
2023-03-21T14:32:09.733Z,94654.00
2023-03-21T14:36:09.802Z,94652.00
2023-03-21T14:40:10.083Z,94646.00
2023-03-21T14:44:10.115Z,94644.00
2023-03-21T14:48:10.280Z,94635.00
2023-03-21T14:52:10.842Z,94633.00
2023-03-21T14:56:10.624Z,94635.00
2023-03-21T15:00:10.746Z,94631.00
2023-03-21T15:04:10.927Z,94629.00
2023-03-21T15:08:11.058Z,94623.00
2023-03-21T15:12:11.242Z,94619.00
2023-03-21T15:16:11.397Z,94617.00
2023-03-21T15:20:11.555Z,94617.00
2023-03-21T15:24:11.669Z,94611.00
2023-03-21T15:28:12.015Z,94611.00
2023-03-21T15:32:12.060Z,94613.00
2023-03-21T15:36:12.421Z,94611.00
2023-03-21T15:40:12.431Z,94607.00
2023-03-21T15:44:12.732Z,94605.00
2023-03-21T15:48:12.858Z,94597.00
2023-03-21T15:52:13.033Z,94595.00
2023-03-21T15:56:13.191Z,94593.00
2023-03-21T16:00:13.470Z,94595.00
2023-03-21T16:04:13.592Z,94599.00
2023-03-21T16:08:13.818Z,94601.00
2023-03-21T16:12:14.010Z,94605.00
2023-03-21T16:16:14.218Z,94607.00
2023-03-21T16:20:14.381Z,94611.00
2023-03-21T16:24:14.588Z,94613.00
2023-03-21T16:28:14.818Z,94615.00
2023-03-21T16:32:15.002Z,94615.00
2023-03-21T16:36:15.206Z,94617.00
2023-03-21T16:40:15.473Z,94621.00
2023-03-21T16:44:15.656Z,94617.00
2023-03-21T16:48:15.671Z,94623.00
2023-03-21T16:52:15.539Z,94629.00
2023-03-21T16:56:15.526Z,94627.00
2023-03-21T17:00:15.476Z,94629.00
2023-03-21T17:04:15.431Z,94629.00
2023-03-21T17:08:15.430Z,94631.00
2023-03-21T17:12:15.346Z,94633.00
2023-03-21T17:16:15.452Z,94637.00
2023-03-21T17:20:15.321Z,94646.00
2023-03-21T17:24:15.435Z,94650.00
2023-03-21T17:28:15.621Z,94654.00
2023-03-21T17:32:15.621Z,94656.00
2023-03-21T17:36:15.569Z,94658.00
2023-03-21T17:40:15.527Z,94654.00
2023-03-21T17:44:15.501Z,94660.00
2023-03-21T17:48:15.535Z,94654.00
2023-03-21T17:52:15.409Z,94660.00
2023-03-21T17:56:15.398Z,94658.00
2023-03-21T18:00:15.326Z,94660.00
2023-03-21T18:04:15.303Z,94662.00
2023-03-21T18:08:15.260Z,94670.00
2023-03-21T18:12:15.222Z,94672.00
2023-03-21T18:16:15.267Z,94674.00
2023-03-21T18:20:15.181Z,94678.00
2023-03-21T18:24:15.202Z,94682.00
2023-03-21T18:28:19.513Z,94687.00
2023-03-21T18:32:16.145Z,94693.00
2023-03-21T18:36:15.050Z,94697.00
2023-03-21T18:40:15.021Z,94701.00
2023-03-21T18:44:23.871Z,94709.00
2023-03-21T18:48:16.197Z,94713.00
2023-03-21T18:52:15.185Z,94717.00
2023-03-21T18:56:57.765Z,94715.00
2023-03-21T19:00:16.217Z,94717.00
2023-03-21T19:04:29.319Z,94719.00
2023-03-21T19:08:16.102Z,94719.00
2023-03-21T19:12:15.078Z,94723.00
2023-03-21T19:16:15.071Z,94729.00
2023-03-21T19:20:14.969Z,94734.00
2023-03-21T19:24:30.396Z,94736.00
2023-03-21T19:28:15.919Z,94742.00
2023-03-21T19:32:14.867Z,94736.00
2023-03-21T19:36:21.841Z,94736.00
2023-03-21T19:40:15.805Z,94740.00
2023-03-21T19:44:14.727Z,94740.00
2023-03-21T19:48:14.767Z,94738.00
2023-03-21T19:52:14.688Z,94740.00
2023-03-21T19:56:21.865Z,94738.00
2023-03-21T20:00:15.610Z,94742.00
2023-03-21T20:04:14.534Z,94744.00
2023-03-21T20:08:14.577Z,94744.00
2023-03-21T20:12:14.521Z,94748.00
2023-03-21T20:16:14.548Z,94752.00
2023-03-21T20:20:14.476Z,94752.00
2023-03-21T20:24:14.409Z,94756.00
2023-03-21T20:28:23.792Z,94754.00
2023-03-21T20:32:15.470Z,94754.00
2023-03-21T20:36:37.573Z,94756.00
2023-03-21T20:40:15.397Z,94760.00
2023-03-21T20:44:45.172Z,94762.00
2023-03-21T20:48:15.372Z,94764.00
2023-03-21T20:52:54.779Z,94762.00
2023-03-21T20:56:15.231Z,94766.00
2023-03-21T21:00:14.121Z,94766.00
2023-03-21T21:04:15.225Z,94774.00
2023-03-21T21:08:14.081Z,94776.00
2023-03-21T21:12:14.579Z,94779.00
2023-03-21T21:16:14.091Z,94781.00
2023-03-21T21:20:13.918Z,94779.00
2023-03-21T21:24:14.696Z,94783.00
2023-03-21T21:28:13.913Z,94783.00
2023-03-21T21:32:13.949Z,94787.00
2023-03-21T21:36:13.965Z,94793.00
2023-03-21T21:40:13.989Z,94791.00
2023-03-21T21:44:14.008Z,94795.00
2023-03-21T21:48:14.082Z,94795.00
2023-03-21T21:52:14.123Z,94791.00
2023-03-21T21:56:14.117Z,94789.00
2023-03-21T22:00:14.289Z,94791.00
2023-03-21T22:04:14.442Z,94787.00
2023-03-21T22:08:14.346Z,94791.00
2023-03-21T22:12:14.413Z,94795.00
2023-03-21T22:16:14.478Z,94799.00
2023-03-21T22:20:14.516Z,94799.00
2023-03-21T22:24:14.557Z,94795.00
2023-03-21T22:28:14.621Z,94789.00
2023-03-21T22:32:14.710Z,94791.00
2023-03-21T22:36:14.739Z,94789.00
2023-03-21T22:40:14.809Z,94789.00
2023-03-21T22:44:14.860Z,94793.00
2023-03-21T22:48:14.948Z,94793.00
2023-03-21T22:52:14.986Z,94793.00
2023-03-21T22:56:15.077Z,94793.00
2023-03-21T23:00:15.158Z,94793.00
2023-03-21T23:04:15.279Z,94791.00
2023-03-21T23:08:15.313Z,94787.00
2023-03-21T23:12:15.395Z,94791.00
2023-03-21T23:16:15.458Z,94791.00
2023-03-21T23:20:15.544Z,94789.00
2023-03-21T23:24:15.684Z,94789.00
2023-03-21T23:28:15.752Z,94785.00
2023-03-21T23:32:15.842Z,94785.00
2023-03-21T23:36:15.893Z,94785.00
2023-03-21T23:40:16.045Z,94785.00
2023-03-21T23:44:16.127Z,94783.00
2023-03-21T23:48:16.263Z,94787.00
2023-03-21T23:52:16.282Z,94787.00
2023-03-21T23:56:16.409Z,94787.00
